Ana Sayfa
METAR-TAF:

METAR-TAF

Havaalanları :

Sandpoint Airport (Dave Wall Field)

Sandpoint, Idaho, Amerika Birleşik Devletleri

Enlem: 48-17-58N, Boylam: 116-33-36W, yükseklik: 648 m

Güncel hava durumu gözlemi

Rapor saat 20:35 UTC de 24 dakika önce yapıldı.
Rüzgar batı/güneybatıdan 7 kt ve 15 kt'a kadar ani rüzgarlar, güney/güneybatı ve batı/güneybatı arasında değişken
Sıcaklık 11°C
Nem 37%
Basınç 1021 hPa
Görüş mesafesi: 16.1 km
5000 ft yükseklikte parçalı bulutlu
6500 ft yükseklikte parçalı çok bulutlu
8500 ft yükseklikte parçalı çok bulutlu

METAR: KSZT 212035Z AUTO 24007G15KT 198V258 10SM SCT050 BKN065 BKN085 11/M03 A3016 RMK AO2

Saat: 13:59 (20:59 UTC)


TAF: eksik

4.000'den fazla havaalanı için hava durumu gözlemleri ve tahminleri (METAR ve TAF raporları).

Kullanılabilir istasyonlar harita üzerinde sarı ve kırmızı noktalarla gösterilir.

İstasyonun adını görmek için fareyi noktanın üzerinde gezdirin.

Sonrasında hava gözlem ve tahminlerini görmek için tıklayın.

Haritayı değiştirmek için: yaklaştırmak için siyah artı işaretli yeşil düğmeye ve uzaklaştırmak için de eksi işaretli düğmeye hızla tıklayın; bitişik haritalar için yeşil okları kullanın.


METAR-TAF: